sensor_id;sensor_type;location;lat;lon;timestamp;pressure;altitude;pressure_sealevel;temperature;humidity
33191;BME280;19554;42.652;23.364;2023-04-07T00:00:20;94361.69;;;3.67;44.57
33191;BME280;19554;42.652;23.364;2023-04-07T00:02:45;94350.66;;;3.75;44.38
33191;BME280;19554;42.652;23.364;2023-04-07T00:05:11;94346.25;;;3.86;44.49
33191;BME280;19554;42.652;23.364;2023-04-07T00:07:36;94348.69;;;3.92;43.96
33191;BME280;19554;42.652;23.364;2023-04-07T00:10:02;94348.19;;;3.95;44.16
33191;BME280;19554;42.652;23.364;2023-04-07T00:12:27;94344.28;;;3.71;44.07
33191;BME280;19554;42.652;23.364;2023-04-07T00:14:53;94312.47;;;3.55;44.54
33191;BME280;19554;42.652;23.364;2023-04-07T00:17:18;94339.00;;;3.71;44.36
33191;BME280;19554;42.652;23.364;2023-04-07T00:19:44;94347.03;;;3.81;44.14
33191;BME280;19554;42.652;23.364;2023-04-07T00:22:09;94335.38;;;3.77;43.54
33191;BME280;19554;42.652;23.364;2023-04-07T00:24:34;94343.81;;;3.79;43.95
33191;BME280;19554;42.652;23.364;2023-04-07T00:27:00;94338.53;;;3.79;43.46
33191;BME280;19554;42.652;23.364;2023-04-07T00:29:26;94337.84;;;3.89;43.77
33191;BME280;19554;42.652;23.364;2023-04-07T00:31:51;94335.88;;;3.74;43.36
33191;BME280;19554;42.652;23.364;2023-04-07T00:34:17;94339.03;;;3.76;43.54
33191;BME280;19554;42.652;23.364;2023-04-07T00:36:42;94340.66;;;3.77;43.35
33191;BME280;19554;42.652;23.364;2023-04-07T00:39:07;94246.72;;;3.17;43.40
33191;BME280;19554;42.652;23.364;2023-04-07T00:41:34;94341.19;;;3.79;43.32
33191;BME280;19554;42.652;23.364;2023-04-07T00:44:00;94337.47;;;3.75;43.56
33191;BME280;19554;42.652;23.364;2023-04-07T00:46:26;94339.66;;;3.83;43.75
33191;BME280;19554;42.652;23.364;2023-04-07T00:48:51;94344.84;;;3.73;43.30
33191;BME280;19554;42.652;23.364;2023-04-07T00:51:19;94346.97;;;3.76;43.31
33191;BME280;19554;42.652;23.364;2023-04-07T00:53:46;94264.66;;;3.15;43.51
33191;BME280;19554;42.652;23.364;2023-04-07T00:56:11;94308.13;;;3.39;43.87
33191;BME280;19554;42.652;23.364;2023-04-07T00:58:37;94292.19;;;3.29;43.51
33191;BME280;19554;42.652;23.364;2023-04-07T01:01:14;94344.22;;;3.66;43.65
33191;BME280;19554;42.652;23.364;2023-04-07T01:04:08;94347.44;;;3.68;43.54
33191;BME280;19554;42.652;23.364;2023-04-07T01:06:39;94263.19;;;3.29;43.17
33191;BME280;19554;42.652;23.364;2023-04-07T01:09:17;94336.94;;;3.73;43.42
33191;BME280;19554;42.652;23.364;2023-04-07T01:14:12;94332.25;;;3.85;43.10
33191;BME280;19554;42.652;23.364;2023-04-07T01:16:48;94336.53;;;3.91;43.18
33191;BME280;19554;42.652;23.364;2023-04-07T01:21:55;94330.69;;;3.84;43.37
33191;BME280;19554;42.652;23.364;2023-04-07T01:27:37;94330.00;;;3.67;43.41
33191;BME280;19554;42.652;23.364;2023-04-07T01:30:06;94318.88;;;3.60;43.54
33191;BME280;19554;42.652;23.364;2023-04-07T01:32:35;94326.50;;;3.61;43.55
33191;BME280;19554;42.652;23.364;2023-04-07T01:35:02;94321.41;;;3.49;43.62
33191;BME280;19554;42.652;23.364;2023-04-07T01:37:29;94321.34;;;3.44;43.73
33191;BME280;19554;42.652;23.364;2023-04-07T01:39:54;94321.16;;;3.51;43.84
33191;BME280;19554;42.652;23.364;2023-04-07T01:42:20;94306.00;;;3.41;44.60
33191;BME280;19554;42.652;23.364;2023-04-07T01:44:47;94325.94;;;3.54;43.67
33191;BME280;19554;42.652;23.364;2023-04-07T01:47:14;94316.16;;;3.54;43.73
33191;BME280;19554;42.652;23.364;2023-04-07T01:49:40;94284.38;;;3.39;43.94
33191;BME280;19554;42.652;23.364;2023-04-07T01:52:06;94299.16;;;3.40;43.89
33191;BME280;19554;42.652;23.364;2023-04-07T01:54:32;94210.69;;;3.00;43.83
33191;BME280;19554;42.652;23.364;2023-04-07T01:56:58;94317.91;;;3.76;44.63
33191;BME280;19554;42.652;23.364;2023-04-07T01:59:24;94302.59;;;3.41;49.78
33191;BME280;19554;42.652;23.364;2023-04-07T02:01:49;94269.28;;;3.07;51.18
33191;BME280;19554;42.652;23.364;2023-04-07T02:04:31;94314.09;;;3.29;51.52
33191;BME280;19554;42.652;23.364;2023-04-07T02:07:08;94282.47;;;3.07;51.82
33191;BME280;19554;42.652;23.364;2023-04-07T02:09:37;94296.69;;;3.01;53.01
33191;BME280;19554;42.652;23.364;2023-04-07T02:12:07;94317.81;;;3.06;53.23
33191;BME280;19554;42.652;23.364;2023-04-07T02:14:34;94311.91;;;2.94;53.30
33191;BME280;19554;42.652;23.364;2023-04-07T02:17:01;94311.34;;;2.92;53.31
33191;BME280;19554;42.652;23.364;2023-04-07T02:19:28;94244.69;;;2.48;53.66
33191;BME280;19554;42.652;23.364;2023-04-07T02:21:54;94306.50;;;3.11;53.67
33191;BME280;19554;42.652;23.364;2023-04-07T02:24:20;94313.31;;;3.07;53.68
33191;BME280;19554;42.652;23.364;2023-04-07T02:26:46;94309.28;;;2.99;54.69
33191;BME280;19554;42.652;23.364;2023-04-07T02:29:12;94297.22;;;3.03;54.79
33191;BME280;19554;42.652;23.364;2023-04-07T02:31:37;94303.03;;;3.05;53.82
33191;BME280;19554;42.652;23.364;2023-04-07T02:34:03;94300.94;;;3.07;52.14
33191;BME280;19554;42.652;23.364;2023-04-07T02:36:28;94300.44;;;3.11;53.59
33191;BME280;19554;42.652;23.364;2023-04-07T02:38:54;94304.13;;;3.09;53.84
33191;BME280;19554;42.652;23.364;2023-04-07T02:41:19;94301.59;;;3.20;53.78
33191;BME280;19554;42.652;23.364;2023-04-07T02:43:45;94243.75;;;2.81;53.68
33191;BME280;19554;42.652;23.364;2023-04-07T02:46:10;94309.13;;;3.33;54.11
33191;BME280;19554;42.652;23.364;2023-04-07T02:48:36;94309.13;;;3.33;53.38
33191;BME280;19554;42.652;23.364;2023-04-07T02:51:01;94243.84;;;2.91;53.56
33191;BME280;19554;42.652;23.364;2023-04-07T02:53:27;94320.06;;;3.20;53.64
33191;BME280;19554;42.652;23.364;2023-04-07T02:55:52;94319.25;;;2.92;54.55
33191;BME280;19554;42.652;23.364;2023-04-07T02:58:17;94323.72;;;2.48;57.32
33191;BME280;19554;42.652;23.364;2023-04-07T03:00:43;94327.13;;;2.48;57.21
33191;BME280;19554;42.652;23.364;2023-04-07T03:03:08;94303.97;;;2.11;57.48
33191;BME280;19554;42.652;23.364;2023-04-07T03:05:34;94317.22;;;2.17;58.38
33191;BME280;19554;42.652;23.364;2023-04-07T03:07:59;94171.63;;;1.16;58.60
33191;BME280;19554;42.652;23.364;2023-04-07T03:10:25;94332.38;;;2.26;58.09
33191;BME280;19554;42.652;23.364;2023-04-07T03:12:50;94324.72;;;2.25;58.01
33191;BME280;19554;42.652;23.364;2023-04-07T03:15:16;94329.41;;;2.40;58.05
33191;BME280;19554;42.652;23.364;2023-04-07T03:17:41;94328.81;;;2.54;57.47
33191;BME280;19554;42.652;23.364;2023-04-07T03:20:07;94324.16;;;2.61;56.76
33191;BME280;19554;42.652;23.364;2023-04-07T03:22:32;94322.81;;;2.81;56.73
33191;BME280;19554;42.652;23.364;2023-04-07T03:24:58;94316.81;;;3.13;55.94
33191;BME280;19554;42.652;23.364;2023-04-07T03:27:23;94314.84;;;3.25;55.07
33191;BME280;19554;42.652;23.364;2023-04-07T03:29:49;94311.28;;;3.41;54.25
33191;BME280;19554;42.652;23.364;2023-04-07T03:32:15;94315.72;;;3.63;52.78
33191;BME280;19554;42.652;23.364;2023-04-07T03:34:41;94311.84;;;3.75;52.14
33191;BME280;19554;42.652;23.364;2023-04-07T03:37:06;94322.78;;;3.89;51.73
33191;BME280;19554;42.652;23.364;2023-04-07T03:39:31;94310.16;;;3.96;49.45
33191;BME280;19554;42.652;23.364;2023-04-07T03:41:57;94313.41;;;4.03;48.62
33191;BME280;19554;42.652;23.364;2023-04-07T03:44:22;94311.50;;;3.99;47.18
33191;BME280;19554;42.652;23.364;2023-04-07T03:46:48;94301.44;;;3.96;46.67
33191;BME280;19554;42.652;23.364;2023-04-07T03:49:14;94315.41;;;3.91;46.28
33191;BME280;19554;42.652;23.364;2023-04-07T03:51:40;94312.69;;;3.81;46.48
33191;BME280;19554;42.652;23.364;2023-04-07T03:54:05;94221.50;;;3.26;45.53
33191;BME280;19554;42.652;23.364;2023-04-07T03:56:31;94314.88;;;3.89;44.85
33191;BME280;19554;42.652;23.364;2023-04-07T03:58:56;94230.97;;;3.27;45.12
33191;BME280;19554;42.652;23.364;2023-04-07T04:01:22;94319.53;;;3.77;45.38
33191;BME280;19554;42.652;23.364;2023-04-07T04:03:48;94331.19;;;3.81;45.78
33191;BME280;19554;42.652;23.364;2023-04-07T04:06:13;94322.41;;;3.75;45.28
33191;BME280;19554;42.652;23.364;2023-04-07T04:08:39;94333.25;;;3.79;45.27
33191;BME280;19554;42.652;23.364;2023-04-07T04:11:04;94308.91;;;3.72;45.13
33191;BME280;19554;42.652;23.364;2023-04-07T04:13:30;94334.47;;;3.93;44.66
33191;BME280;19554;42.652;23.364;2023-04-07T04:15:56;94333.03;;;3.80;46.85
33191;BME280;19554;42.652;23.364;2023-04-07T04:18:21;94344.19;;;3.61;50.50
33191;BME280;19554;42.652;23.364;2023-04-07T04:20:47;94265.50;;;2.71;53.26
33191;BME280;19554;42.652;23.364;2023-04-07T04:23:13;94342.13;;;3.14;53.86
33191;BME280;19554;42.652;23.364;2023-04-07T04:25:38;94343.13;;;3.07;54.60
33191;BME280;19554;42.652;23.364;2023-04-07T04:28:05;94325.06;;;2.94;54.51
33191;BME280;19554;42.652;23.364;2023-04-07T04:30:30;94332.97;;;2.94;54.08
33191;BME280;19554;42.652;23.364;2023-04-07T04:32:56;94326.72;;;2.78;55.34
33191;BME280;19554;42.652;23.364;2023-04-07T04:35:21;94318.78;;;2.34;55.75
33191;BME280;19554;42.652;23.364;2023-04-07T04:37:47;94358.81;;;2.53;57.31
33191;BME280;19554;42.652;23.364;2023-04-07T04:40:12;94358.69;;;2.43;57.63
33191;BME280;19554;42.652;23.364;2023-04-07T04:42:38;94357.41;;;2.29;58.54
33191;BME280;19554;42.652;23.364;2023-04-07T04:45:04;94330.94;;;2.19;58.29
33191;BME280;19554;42.652;23.364;2023-04-07T04:47:30;94351.66;;;2.32;57.65
33191;BME280;19554;42.652;23.364;2023-04-07T04:49:56;94367.56;;;2.59;57.03
33191;BME280;19554;42.652;23.364;2023-04-07T04:52:21;94361.16;;;2.72;56.19
33191;BME280;19554;42.652;23.364;2023-04-07T04:54:46;94361.78;;;2.79;55.65
33191;BME280;19554;42.652;23.364;2023-04-07T04:57:12;94366.91;;;2.69;55.87
33191;BME280;19554;42.652;23.364;2023-04-07T04:59:37;94370.69;;;2.56;55.81
33191;BME280;19554;42.652;23.364;2023-04-07T05:02:04;94374.63;;;2.53;55.52
33191;BME280;19554;42.652;23.364;2023-04-07T05:04:29;94375.75;;;2.57;55.08
33191;BME280;19554;42.652;23.364;2023-04-07T05:06:54;94366.69;;;2.70;55.06
33191;BME280;19554;42.652;23.364;2023-04-07T05:09:20;94364.50;;;2.84;53.23
33191;BME280;19554;42.652;23.364;2023-04-07T05:11:45;94299.75;;;2.49;52.43
33191;BME280;19554;42.652;23.364;2023-04-07T05:14:11;94378.94;;;3.03;52.14
33191;BME280;19554;42.652;23.364;2023-04-07T05:16:36;94375.41;;;3.15;52.08
33191;BME280;19554;42.652;23.364;2023-04-07T05:19:02;94387.03;;;3.19;52.52
33191;BME280;19554;42.652;23.364;2023-04-07T05:21:27;94353.56;;;2.97;52.62
33191;BME280;19554;42.652;23.364;2023-04-07T05:23:52;94389.84;;;3.34;53.19
33191;BME280;19554;42.652;23.364;2023-04-07T05:26:18;94387.47;;;3.60;53.04
33191;BME280;19554;42.652;23.364;2023-04-07T05:28:43;94351.72;;;3.74;52.09
33191;BME280;19554;42.652;23.364;2023-04-07T05:31:09;94391.25;;;4.33;51.13
33191;BME280;19554;42.652;23.364;2023-04-07T05:33:34;94401.06;;;4.80;50.61
33191;BME280;19554;42.652;23.364;2023-04-07T05:36:00;94392.22;;;5.12;49.98
33191;BME280;19554;42.652;23.364;2023-04-07T05:38:25;94396.91;;;5.67;48.53
33191;BME280;19554;42.652;23.364;2023-04-07T05:40:50;94371.28;;;5.93;47.14
33191;BME280;19554;42.652;23.364;2023-04-07T05:43:16;94387.72;;;6.41;46.28
33191;BME280;19554;42.652;23.364;2023-04-07T05:45:42;94394.09;;;6.40;45.90
33191;BME280;19554;42.652;23.364;2023-04-07T05:48:07;94380.06;;;6.30;46.30
33191;BME280;19554;42.652;23.364;2023-04-07T05:50:32;94382.94;;;6.28;45.66
33191;BME280;19554;42.652;23.364;2023-04-07T05:52:58;94382.41;;;6.11;45.30
33191;BME280;19554;42.652;23.364;2023-04-07T05:55:23;94391.97;;;6.27;45.48
33191;BME280;19554;42.652;23.364;2023-04-07T05:57:48;94305.50;;;5.29;45.62
33191;BME280;19554;42.652;23.364;2023-04-07T06:00:14;94394.59;;;5.91;45.76
33191;BME280;19554;42.652;23.364;2023-04-07T06:02:40;94380.31;;;6.03;45.23
33191;BME280;19554;42.652;23.364;2023-04-07T06:05:06;94388.78;;;6.05;45.61
33191;BME280;19554;42.652;23.364;2023-04-07T06:07:31;94368.66;;;5.99;45.72
33191;BME280;19554;42.652;23.364;2023-04-07T06:09:57;94375.53;;;6.20;45.77
33191;BME280;19554;42.652;23.364;2023-04-07T06:12:22;94386.66;;;6.37;45.13
33191;BME280;19554;42.652;23.364;2023-04-07T06:14:54;94386.66;;;6.32;44.82
33191;BME280;19554;42.652;23.364;2023-04-07T06:17:20;94382.41;;;6.52;44.37
33191;BME280;19554;42.652;23.364;2023-04-07T06:19:46;94377.91;;;6.47;44.28
33191;BME280;19554;42.652;23.364;2023-04-07T06:22:11;94382.41;;;6.67;43.99
33191;BME280;19554;42.652;23.364;2023-04-07T06:24:36;94390.56;;;6.86;44.26
33191;BME280;19554;42.652;23.364;2023-04-07T06:27:02;94391.31;;;7.07;43.09
33191;BME280;19554;42.652;23.364;2023-04-07T06:29:28;94370.88;;;7.02;42.49
33191;BME280;19554;42.652;23.364;2023-04-07T06:31:54;94383.75;;;7.40;41.87
33191;BME280;19554;42.652;23.364;2023-04-07T06:34:20;94383.72;;;7.45;41.36
33191;BME280;19554;42.652;23.364;2023-04-07T06:36:45;94373.63;;;7.42;42.40
33191;BME280;19554;42.652;23.364;2023-04-07T06:39:10;94370.25;;;7.80;42.10
33191;BME280;19554;42.652;23.364;2023-04-07T06:41:36;94379.72;;;7.97;40.62
33191;BME280;19554;42.652;23.364;2023-04-07T06:44:03;94368.78;;;7.59;40.69
33191;BME280;19554;42.652;23.364;2023-04-07T06:46:28;94370.09;;;7.02;42.02
33191;BME280;19554;42.652;23.364;2023-04-07T06:48:54;94295.44;;;6.54;42.04
33191;BME280;19554;42.652;23.364;2023-04-07T06:51:20;94379.69;;;6.87;42.07
33191;BME280;19554;42.652;23.364;2023-04-07T06:53:45;94386.50;;;7.19;42.65
33191;BME280;19554;42.652;23.364;2023-04-07T06:56:12;94379.22;;;7.90;42.44
33191;BME280;19554;42.652;23.364;2023-04-07T06:58:38;94389.84;;;7.90;41.24
33191;BME280;19554;42.652;23.364;2023-04-07T07:01:04;94367.78;;;7.89;41.17
33191;BME280;19554;42.652;23.364;2023-04-07T07:03:31;94381.78;;;8.05;40.87
33191;BME280;19554;42.652;23.364;2023-04-07T07:06:00;94385.69;;;8.18;40.77
33191;BME280;19554;42.652;23.364;2023-04-07T07:08:26;94385.72;;;7.68;41.60
33191;BME280;19554;42.652;23.364;2023-04-07T07:10:52;94389.66;;;7.76;41.70
33191;BME280;19554;42.652;23.364;2023-04-07T07:13:20;94398.47;;;7.71;41.13
33191;BME280;19554;42.652;23.364;2023-04-07T07:15:47;94385.06;;;7.92;41.94
33191;BME280;19554;42.652;23.364;2023-04-07T07:18:13;94390.00;;;8.48;40.90
33191;BME280;19554;42.652;23.364;2023-04-07T07:20:38;94396.41;;;9.00;39.78
33191;BME280;19554;42.652;23.364;2023-04-07T07:23:03;94387.44;;;9.39;38.16
33191;BME280;19554;42.652;23.364;2023-04-07T07:25:29;94376.88;;;9.34;35.74
33191;BME280;19554;42.652;23.364;2023-04-07T07:27:54;94398.53;;;9.89;36.58
33191;BME280;19554;42.652;23.364;2023-04-07T07:30:21;94399.91;;;10.05;34.27
33191;BME280;19554;42.652;23.364;2023-04-07T07:32:47;94402.56;;;9.86;35.02
33191;BME280;19554;42.652;23.364;2023-04-07T07:35:13;94382.78;;;9.49;34.61
33191;BME280;19554;42.652;23.364;2023-04-07T07:37:38;94398.88;;;9.39;33.55
33191;BME280;19554;42.652;23.364;2023-04-07T07:40:04;94404.00;;;9.36;33.29
33191;BME280;19554;42.652;23.364;2023-04-07T07:42:30;94410.53;;;9.24;34.27
33191;BME280;19554;42.652;23.364;2023-04-07T07:44:56;94406.78;;;9.25;33.80
33191;BME280;19554;42.652;23.364;2023-04-07T07:47:21;94419.63;;;9.18;33.76
33191;BME280;19554;42.652;23.364;2023-04-07T07:49:47;94421.91;;;9.06;33.63
33191;BME280;19554;42.652;23.364;2023-04-07T07:52:13;94410.63;;;9.14;34.33
33191;BME280;19554;42.652;23.364;2023-04-07T07:54:38;94403.31;;;9.01;33.79
33191;BME280;19554;42.652;23.364;2023-04-07T07:57:04;94411.81;;;9.03;33.71
33191;BME280;19554;42.652;23.364;2023-04-07T07:59:30;94401.91;;;8.56;33.85
33191;BME280;19554;42.652;23.364;2023-04-07T08:01:56;94416.47;;;8.24;34.61
33191;BME280;19554;42.652;23.364;2023-04-07T08:04:21;94394.00;;;8.06;35.00
33191;BME280;19554;42.652;23.364;2023-04-07T08:06:47;94403.00;;;8.49;36.02
33191;BME280;19554;42.652;23.364;2023-04-07T08:09:13;94404.25;;;8.57;34.55
33191;BME280;19554;42.652;23.364;2023-04-07T08:11:39;94409.56;;;8.62;34.32
33191;BME280;19554;42.652;23.364;2023-04-07T08:14:05;94412.13;;;8.72;34.41
33191;BME280;19554;42.652;23.364;2023-04-07T08:16:31;94422.22;;;8.75;33.72
33191;BME280;19554;42.652;23.364;2023-04-07T08:18:56;94413.16;;;8.76;34.03
33191;BME280;19554;42.652;23.364;2023-04-07T08:21:21;94408.75;;;8.91;34.59
33191;BME280;19554;42.652;23.364;2023-04-07T08:23:47;94408.06;;;9.04;33.77
33191;BME280;19554;42.652;23.364;2023-04-07T08:26:12;94417.16;;;9.03;34.00
33191;BME280;19554;42.652;23.364;2023-04-07T08:28:38;94397.22;;;9.24;33.49
33191;BME280;19554;42.652;23.364;2023-04-07T08:31:03;94412.72;;;9.17;33.45
33191;BME280;19554;42.652;23.364;2023-04-07T08:33:29;94307.59;;;8.67;34.03
33191;BME280;19554;42.652;23.364;2023-04-07T08:35:55;94415.19;;;9.57;33.42
33191;BME280;19554;42.652;23.364;2023-04-07T08:38:21;94398.63;;;9.60;33.06
33191;BME280;19554;42.652;23.364;2023-04-07T08:40:49;94408.38;;;9.69;33.12
33191;BME280;19554;42.652;23.364;2023-04-07T08:43:18;94350.16;;;9.39;33.61
33191;BME280;19554;42.652;23.364;2023-04-07T08:45:45;94408.81;;;9.77;32.45
33191;BME280;19554;42.652;23.364;2023-04-07T08:48:22;94407.38;;;9.65;32.29
33191;BME280;19554;42.652;23.364;2023-04-07T08:50:48;94398.72;;;9.73;32.58
33191;BME280;19554;42.652;23.364;2023-04-07T08:53:18;94407.72;;;9.59;33.18
33191;BME280;19554;42.652;23.364;2023-04-07T08:55:45;94391.50;;;9.55;32.67
33191;BME280;19554;42.652;23.364;2023-04-07T08:58:12;94415.44;;;9.36;32.55
33191;BME280;19554;42.652;23.364;2023-04-07T09:00:44;94399.13;;;9.43;32.97
33191;BME280;19554;42.652;23.364;2023-04-07T09:03:10;94408.94;;;9.66;32.75
33191;BME280;19554;42.652;23.364;2023-04-07T09:05:37;94373.13;;;9.54;32.28
33191;BME280;19554;42.652;23.364;2023-04-07T09:08:03;94379.28;;;9.54;33.02
33191;BME280;19554;42.652;23.364;2023-04-07T09:10:28;94408.81;;;9.77;32.57
33191;BME280;19554;42.652;23.364;2023-04-07T09:12:54;94347.69;;;9.23;32.68
33191;BME280;19554;42.652;23.364;2023-04-07T09:15:20;94405.53;;;9.85;32.56
33191;BME280;19554;42.652;23.364;2023-04-07T09:17:46;94401.22;;;9.89;31.95
33191;BME280;19554;42.652;23.364;2023-04-07T09:20:11;94398.97;;;9.96;32.04
33191;BME280;19554;42.652;23.364;2023-04-07T09:25:15;94407.56;;;10.31;31.62
33191;BME280;19554;42.652;23.364;2023-04-07T09:27:56;94345.78;;;9.86;31.87
33191;BME280;19554;42.652;23.364;2023-04-07T09:30:22;94390.81;;;10.06;30.88
33191;BME280;19554;42.652;23.364;2023-04-07T09:32:48;94406.97;;;9.96;32.56
33191;BME280;19554;42.652;23.364;2023-04-07T09:35:13;94395.44;;;10.19;32.02
33191;BME280;19554;42.652;23.364;2023-04-07T09:37:38;94410.44;;;10.15;32.06
33191;BME280;19554;42.652;23.364;2023-04-07T09:40:04;94414.25;;;10.09;32.23
33191;BME280;19554;42.652;23.364;2023-04-07T09:42:31;94414.41;;;9.99;32.53
33191;BME280;19554;42.652;23.364;2023-04-07T09:44:59;94415.59;;;9.88;32.20
33191;BME280;19554;42.652;23.364;2023-04-07T09:47:30;94404.75;;;9.60;32.81
33191;BME280;19554;42.652;23.364;2023-04-07T09:49:56;94414.28;;;9.23;32.98
33191;BME280;19554;42.652;23.364;2023-04-07T09:52:49;94423.72;;;9.35;33.88
33191;BME280;19554;42.652;23.364;2023-04-07T09:55:20;94419.75;;;9.32;33.44
33191;BME280;19554;42.652;23.364;2023-04-07T09:57:47;94426.53;;;9.19;34.00
33191;BME280;19554;42.652;23.364;2023-04-07T10:00:13;94340.75;;;8.50;34.91
33191;BME280;19554;42.652;23.364;2023-04-07T10:02:39;94419.16;;;9.16;34.55
33191;BME280;19554;42.652;23.364;2023-04-07T10:05:05;94411.19;;;9.35;34.41
33191;BME280;19554;42.652;23.364;2023-04-07T10:07:31;94418.59;;;9.62;33.83
33191;BME280;19554;42.652;23.364;2023-04-07T10:09:56;94425.38;;;9.73;34.18
33191;BME280;19554;42.652;23.364;2023-04-07T10:12:22;94411.88;;;9.89;33.79
33191;BME280;19554;42.652;23.364;2023-04-07T10:14:49;94420.44;;;10.05;32.80
33191;BME280;19554;42.652;23.364;2023-04-07T10:17:16;94402.72;;;9.95;32.91
33191;BME280;19554;42.652;23.364;2023-04-07T10:19:44;94421.72;;;10.07;33.15
33191;BME280;19554;42.652;23.364;2023-04-07T10:22:11;94409.41;;;10.11;32.65
33191;BME280;19554;42.652;23.364;2023-04-07T10:24:58;94412.72;;;10.03;32.67
33191;BME280;19554;42.652;23.364;2023-04-07T10:27:46;94416.84;;;9.95;33.13
33191;BME280;19554;42.652;23.364;2023-04-07T10:30:28;94419.44;;;10.01;33.13
33191;BME280;19554;42.652;23.364;2023-04-07T10:32:54;94419.13;;;9.83;32.99
33191;BME280;19554;42.652;23.364;2023-04-07T10:35:20;94421.91;;;9.54;33.33
33191;BME280;19554;42.652;23.364;2023-04-07T10:38:21;94419.25;;;9.54;33.57
33191;BME280;19554;42.652;23.364;2023-04-07T10:40:46;94423.50;;;9.55;34.06
33191;BME280;19554;42.652;23.364;2023-04-07T10:43:12;94433.19;;;9.46;34.14
33191;BME280;19554;42.652;23.364;2023-04-07T10:45:52;94296.72;;;8.63;34.07
33191;BME280;19554;42.652;23.364;2023-04-07T10:48:20;94426.19;;;9.50;33.72
33191;BME280;19554;42.652;23.364;2023-04-07T10:53:31;94355.41;;;9.01;34.02
33191;BME280;19554;42.652;23.364;2023-04-07T10:55:58;94339.66;;;8.81;33.93
33191;BME280;19554;42.652;23.364;2023-04-07T10:58:30;94434.94;;;9.32;34.32
33191;BME280;19554;42.652;23.364;2023-04-07T11:03:22;94438.72;;;9.25;35.68
33191;BME280;19554;42.652;23.364;2023-04-07T11:05:47;94434.16;;;9.31;36.09
33191;BME280;19554;42.652;23.364;2023-04-07T11:08:12;94432.63;;;9.25;36.42
33191;BME280;19554;42.652;23.364;2023-04-07T11:10:38;94385.00;;;8.70;36.19
33191;BME280;19554;42.652;23.364;2023-04-07T11:13:07;94448.16;;;8.89;36.58
33191;BME280;19554;42.652;23.364;2023-04-07T11:15:36;94444.06;;;8.72;36.99
33191;BME280;19554;42.652;23.364;2023-04-07T11:18:21;94426.00;;;8.64;37.38
33191;BME280;19554;42.652;23.364;2023-04-07T11:20:49;94440.78;;;8.81;37.41
33191;BME280;19554;42.652;23.364;2023-04-07T11:23:15;94445.22;;;8.90;37.68
33191;BME280;19554;42.652;23.364;2023-04-07T11:25:44;94447.50;;;9.02;37.15
33191;BME280;19554;42.652;23.364;2023-04-07T11:28:11;94383.19;;;8.66;37.16
33191;BME280;19554;42.652;23.364;2023-04-07T11:30:37;94398.19;;;8.81;37.51
33191;BME280;19554;42.652;23.364;2023-04-07T11:33:03;94434.59;;;9.14;37.15
33191;BME280;19554;42.652;23.364;2023-04-07T11:35:29;94448.78;;;9.34;36.88
33191;BME280;19554;42.652;23.364;2023-04-07T11:37:58;94446.78;;;9.20;37.19
33191;BME280;19554;42.652;23.364;2023-04-07T11:40:35;94445.25;;;9.14;36.68
33191;BME280;19554;42.652;23.364;2023-04-07T11:43:01;94447.13;;;8.85;36.59
33191;BME280;19554;42.652;23.364;2023-04-07T11:45:27;94425.66;;;8.76;37.41
33191;BME280;19554;42.652;23.364;2023-04-07T11:47:53;94444.19;;;8.86;37.54
33191;BME280;19554;42.652;23.364;2023-04-07T11:50:38;94444.88;;;8.97;37.58
33191;BME280;19554;42.652;23.364;2023-04-07T11:53:03;94441.69;;;8.95;37.93
33191;BME280;19554;42.652;23.364;2023-04-07T11:55:29;94423.91;;;8.61;38.40
33191;BME280;19554;42.652;23.364;2023-04-07T11:57:54;94433.69;;;8.31;39.26
33191;BME280;19554;42.652;23.364;2023-04-07T12:00:29;94444.25;;;8.47;39.37
33191;BME280;19554;42.652;23.364;2023-04-07T12:02:54;94441.19;;;8.64;39.16
33191;BME280;19554;42.652;23.364;2023-04-07T12:05:20;94434.91;;;8.84;38.48
33191;BME280;19554;42.652;23.364;2023-04-07T12:07:53;94439.66;;;8.87;38.94
33191;BME280;19554;42.652;23.364;2023-04-07T12:10:22;94438.00;;;8.96;39.01
33191;BME280;19554;42.652;23.364;2023-04-07T12:12:50;94435.00;;;8.73;39.01
33191;BME280;19554;42.652;23.364;2023-04-07T12:15:16;94421.56;;;8.54;39.69
33191;BME280;19554;42.652;23.364;2023-04-07T12:17:45;94438.25;;;8.65;39.68
33191;BME280;19554;42.652;23.364;2023-04-07T12:20:12;94378.41;;;8.28;39.06
33191;BME280;19554;42.652;23.364;2023-04-07T12:22:37;94443.03;;;8.68;39.47
33191;BME280;19554;42.652;23.364;2023-04-07T12:25:02;94436.78;;;8.83;40.47
33191;BME280;19554;42.652;23.364;2023-04-07T12:27:28;94446.97;;;8.71;40.01
33191;BME280;19554;42.652;23.364;2023-04-07T12:29:53;94445.06;;;8.76;40.17
33191;BME280;19554;42.652;23.364;2023-04-07T12:32:19;94443.78;;;8.40;40.80
33191;BME280;19554;42.652;23.364;2023-04-07T12:34:44;94442.09;;;8.49;40.11
33191;BME280;19554;42.652;23.364;2023-04-07T12:37:09;94449.09;;;8.35;40.22
33191;BME280;19554;42.652;23.364;2023-04-07T12:39:35;94443.78;;;8.35;40.21
33191;BME280;19554;42.652;23.364;2023-04-07T12:42:00;94433.56;;;8.52;40.41
33191;BME280;19554;42.652;23.364;2023-04-07T12:44:25;94442.38;;;8.08;40.63
33191;BME280;19554;42.652;23.364;2023-04-07T12:46:51;94441.16;;;8.29;40.70
33191;BME280;19554;42.652;23.364;2023-04-07T12:49:16;94443.56;;;8.31;40.79
33191;BME280;19554;42.652;23.364;2023-04-07T12:51:41;94424.97;;;8.26;40.90
33191;BME280;19554;42.652;23.364;2023-04-07T12:54:07;94354.56;;;7.84;40.71
33191;BME280;19554;42.652;23.364;2023-04-07T12:56:32;94440.59;;;8.32;40.91
33191;BME280;19554;42.652;23.364;2023-04-07T12:58:58;94445.09;;;8.42;40.80
33191;BME280;19554;42.652;23.364;2023-04-07T13:01:23;94437.81;;;8.53;40.31
33191;BME280;19554;42.652;23.364;2023-04-07T13:03:49;94450.00;;;8.59;39.87
33191;BME280;19554;42.652;23.364;2023-04-07T13:06:15;94452.19;;;8.52;40.04
33191;BME280;19554;42.652;23.364;2023-04-07T13:08:42;94459.34;;;8.57;40.37
33191;BME280;19554;42.652;23.364;2023-04-07T13:11:08;94456.81;;;8.70;40.50
33191;BME280;19554;42.652;23.364;2023-04-07T13:13:33;94455.91;;;8.51;39.97